sensor_id;sensor_type;location;lat;lon;timestamp;pressure;altitude;pressure_sealevel;temperature;humidity
46642;BME280;32370;41.864;-88.124;2023-03-01T00:01:01;98396.30;;;6.17;56.01
46642;BME280;32370;41.864;-88.124;2023-03-01T00:03:28;98402.57;;;6.39;55.49
46642;BME280;32370;41.864;-88.124;2023-03-01T00:05:56;98408.44;;;6.43;55.30
46642;BME280;32370;41.864;-88.124;2023-03-01T00:08:24;98411.34;;;6.37;54.98
46642;BME280;32370;41.864;-88.124;2023-03-01T00:11:01;98406.95;;;5.99;54.35
46642;BME280;32370;41.864;-88.124;2023-03-01T00:13:29;98403.35;;;6.06;54.23
46642;BME280;32370;41.864;-88.124;2023-03-01T00:15:56;98402.06;;;5.87;52.20
46642;BME280;32370;41.864;-88.124;2023-03-01T00:18:25;98409.71;;;6.05;52.50
46642;BME280;32370;41.864;-88.124;2023-03-01T00:20:59;98411.95;;;5.81;53.52
46642;BME280;32370;41.864;-88.124;2023-03-01T00:23:27;98416.16;;;6.35;53.07
46642;BME280;32370;41.864;-88.124;2023-03-01T00:25:55;98424.78;;;6.28;53.27
46642;BME280;32370;41.864;-88.124;2023-03-01T00:28:24;98429.37;;;5.99;53.26
46642;BME280;32370;41.864;-88.124;2023-03-01T00:30:52;98426.13;;;5.94;50.48
46642;BME280;32370;41.864;-88.124;2023-03-01T00:33:20;98410.62;;;5.48;51.79
46642;BME280;32370;41.864;-88.124;2023-03-01T00:35:48;98399.67;;;5.56;47.81
46642;BME280;32370;41.864;-88.124;2023-03-01T00:38:16;98405.06;;;5.41;48.59
46642;BME280;32370;41.864;-88.124;2023-03-01T00:40:44;98410.74;;;5.84;47.01
46642;BME280;32370;41.864;-88.124;2023-03-01T00:43:12;98420.37;;;5.21;45.50
46642;BME280;32370;41.864;-88.124;2023-03-01T00:45:40;98415.34;;;5.43;47.10
46642;BME280;32370;41.864;-88.124;2023-03-01T00:48:08;98413.36;;;5.19;46.43
46642;BME280;32370;41.864;-88.124;2023-03-01T00:50:36;98406.87;;;5.27;47.61
46642;BME280;32370;41.864;-88.124;2023-03-01T00:53:04;98408.37;;;5.41;47.91
46642;BME280;32370;41.864;-88.124;2023-03-01T00:55:32;98398.31;;;4.88;48.28
46642;BME280;32370;41.864;-88.124;2023-03-01T00:57:59;98387.77;;;4.81;49.72
46642;BME280;32370;41.864;-88.124;2023-03-01T01:00:28;98373.21;;;4.52;50.27
46642;BME280;32370;41.864;-88.124;2023-03-01T01:02:55;98377.65;;;5.20;50.51
46642;BME280;32370;41.864;-88.124;2023-03-01T01:05:23;98378.99;;;4.59;50.30
46642;BME280;32370;41.864;-88.124;2023-03-01T01:07:51;98384.42;;;4.66;50.75
46642;BME280;32370;41.864;-88.124;2023-03-01T01:10:19;98383.75;;;4.71;50.43
46642;BME280;32370;41.864;-88.124;2023-03-01T01:12:47;98380.10;;;4.83;50.76
46642;BME280;32370;41.864;-88.124;2023-03-01T01:15:15;98381.21;;;4.78;52.07
46642;BME280;32370;41.864;-88.124;2023-03-01T01:17:43;98375.54;;;4.87;51.44
46642;BME280;32370;41.864;-88.124;2023-03-01T01:20:11;98373.13;;;4.77;50.30
46642;BME280;32370;41.864;-88.124;2023-03-01T01:22:39;98375.95;;;4.59;51.68
46642;BME280;32370;41.864;-88.124;2023-03-01T01:25:08;98370.41;;;4.68;52.66
46642;BME280;32370;41.864;-88.124;2023-03-01T01:27:36;98373.58;;;4.53;52.01
46642;BME280;32370;41.864;-88.124;2023-03-01T01:30:06;98371.22;;;4.51;51.98
46642;BME280;32370;41.864;-88.124;2023-03-01T01:32:34;98374.37;;;4.67;53.61
46642;BME280;32370;41.864;-88.124;2023-03-01T01:35:02;98373.34;;;4.34;53.55
46642;BME280;32370;41.864;-88.124;2023-03-01T01:37:30;98375.41;;;4.38;54.70
46642;BME280;32370;41.864;-88.124;2023-03-01T01:39:58;98378.93;;;4.20;53.62
46642;BME280;32370;41.864;-88.124;2023-03-01T01:42:26;98376.88;;;4.73;53.91
46642;BME280;32370;41.864;-88.124;2023-03-01T01:45:27;98369.35;;;4.49;52.95
46642;BME280;32370;41.864;-88.124;2023-03-01T01:48:00;98371.33;;;4.35;54.00
46642;BME280;32370;41.864;-88.124;2023-03-01T01:50:31;98376.56;;;4.73;53.45
46642;BME280;32370;41.864;-88.124;2023-03-01T01:53:00;98375.60;;;4.66;52.01
46642;BME280;32370;41.864;-88.124;2023-03-01T01:55:28;98371.81;;;4.30;54.12
46642;BME280;32370;41.864;-88.124;2023-03-01T01:58:00;98368.52;;;4.35;52.66
46642;BME280;32370;41.864;-88.124;2023-03-01T02:00:30;98373.84;;;4.04;54.19
46642;BME280;32370;41.864;-88.124;2023-03-01T02:03:00;98379.31;;;4.43;53.78
46642;BME280;32370;41.864;-88.124;2023-03-01T02:05:35;98382.59;;;4.01;53.58
46642;BME280;32370;41.864;-88.124;2023-03-01T02:08:05;98382.85;;;4.12;53.52
46642;BME280;32370;41.864;-88.124;2023-03-01T02:10:35;98381.88;;;4.27;53.43
46642;BME280;32370;41.864;-88.124;2023-03-01T02:13:04;98384.90;;;4.43;53.42
46642;BME280;32370;41.864;-88.124;2023-03-01T02:15:33;98384.92;;;3.84;53.04
46642;BME280;32370;41.864;-88.124;2023-03-01T02:18:01;98382.96;;;4.24;53.36
46642;BME280;32370;41.864;-88.124;2023-03-01T02:20:35;98380.55;;;3.78;53.34
46642;BME280;32370;41.864;-88.124;2023-03-01T02:23:07;98384.00;;;4.17;53.32
46642;BME280;32370;41.864;-88.124;2023-03-01T02:25:41;98393.10;;;3.88;52.61
46642;BME280;32370;41.864;-88.124;2023-03-01T02:28:19;98403.65;;;3.93;53.52
46642;BME280;32370;41.864;-88.124;2023-03-01T02:30:50;98401.60;;;4.09;54.20
46642;BME280;32370;41.864;-88.124;2023-03-01T02:33:18;98399.66;;;3.97;53.22
46642;BME280;32370;41.864;-88.124;2023-03-01T02:35:46;98398.10;;;4.24;53.87
46642;BME280;32370;41.864;-88.124;2023-03-01T02:38:13;98399.21;;;4.32;54.06
46642;BME280;32370;41.864;-88.124;2023-03-01T02:40:42;98395.45;;;3.97;54.81
46642;BME280;32370;41.864;-88.124;2023-03-01T02:43:11;98389.14;;;4.39;54.55
46642;BME280;32370;41.864;-88.124;2023-03-01T02:45:48;98387.05;;;4.04;54.47
46642;BME280;32370;41.864;-88.124;2023-03-01T02:48:16;98384.03;;;4.02;55.47
46642;BME280;32370;41.864;-88.124;2023-03-01T02:51:02;98389.24;;;3.89;55.15
46642;BME280;32370;41.864;-88.124;2023-03-01T02:53:41;98382.75;;;3.93;56.55
46642;BME280;32370;41.864;-88.124;2023-03-01T02:56:12;98368.63;;;4.62;55.74
46642;BME280;32370;41.864;-88.124;2023-03-01T02:58:41;98370.95;;;4.63;54.56
46642;BME280;32370;41.864;-88.124;2023-03-01T03:01:10;98358.33;;;4.75;55.01
46642;BME280;32370;41.864;-88.124;2023-03-01T03:03:38;98336.50;;;3.91;57.48
46642;BME280;32370;41.864;-88.124;2023-03-01T03:06:06;98303.96;;;4.30;56.18
46642;BME280;32370;41.864;-88.124;2023-03-01T03:08:35;98277.25;;;4.77;55.45
46642;BME280;32370;41.864;-88.124;2023-03-01T03:11:04;98293.36;;;4.03;56.34
46642;BME280;32370;41.864;-88.124;2023-03-01T03:13:31;98325.36;;;4.19;56.43
46642;BME280;32370;41.864;-88.124;2023-03-01T03:15:59;98331.79;;;3.90;57.80
46642;BME280;32370;41.864;-88.124;2023-03-01T03:18:29;98318.15;;;3.67;57.61
46642;BME280;32370;41.864;-88.124;2023-03-01T03:20:57;98323.01;;;3.84;58.04
46642;BME280;32370;41.864;-88.124;2023-03-01T03:23:25;98332.24;;;3.79;58.23
46642;BME280;32370;41.864;-88.124;2023-03-01T03:25:53;98340.65;;;4.16;57.15
46642;BME280;32370;41.864;-88.124;2023-03-01T03:28:21;98338.66;;;4.15;57.21
46642;BME280;32370;41.864;-88.124;2023-03-01T03:30:50;98334.71;;;3.80;58.98
46642;BME280;32370;41.864;-88.124;2023-03-01T03:33:18;98332.84;;;3.91;59.27
46642;BME280;32370;41.864;-88.124;2023-03-01T03:35:48;98338.70;;;3.93;58.74
46642;BME280;32370;41.864;-88.124;2023-03-01T03:38:18;98344.94;;;4.23;59.23
46642;BME280;32370;41.864;-88.124;2023-03-01T03:40:48;98343.22;;;3.74;59.82
46642;BME280;32370;41.864;-88.124;2023-03-01T03:43:18;98336.99;;;3.80;59.38
46642;BME280;32370;41.864;-88.124;2023-03-01T03:45:47;98341.96;;;3.63;59.79
46642;BME280;32370;41.864;-88.124;2023-03-01T03:48:16;98344.06;;;3.59;60.55
46642;BME280;32370;41.864;-88.124;2023-03-01T03:50:49;98339.64;;;4.03;60.54
46642;BME280;32370;41.864;-88.124;2023-03-01T03:53:18;98335.68;;;4.31;60.18
46642;BME280;32370;41.864;-88.124;2023-03-01T03:55:46;98318.58;;;4.17;61.05
46642;BME280;32370;41.864;-88.124;2023-03-01T03:58:14;98296.40;;;4.50;60.17
46642;BME280;32370;41.864;-88.124;2023-03-01T04:00:44;98280.19;;;4.77;59.85
46642;BME280;32370;41.864;-88.124;2023-03-01T04:03:15;98294.31;;;4.41;59.87
46642;BME280;32370;41.864;-88.124;2023-03-01T04:05:43;98320.31;;;4.22;60.32
46642;BME280;32370;41.864;-88.124;2023-03-01T04:08:11;98316.44;;;4.72;59.92
46642;BME280;32370;41.864;-88.124;2023-03-01T04:10:41;98303.86;;;4.47;60.04
46642;BME280;32370;41.864;-88.124;2023-03-01T04:13:12;98300.51;;;4.32;61.06
46642;BME280;32370;41.864;-88.124;2023-03-01T04:15:41;98325.10;;;4.24;61.24
46642;BME280;32370;41.864;-88.124;2023-03-01T04:18:09;98326.77;;;4.24;61.91
46642;BME280;32370;41.864;-88.124;2023-03-01T04:20:40;98337.83;;;4.55;60.51
46642;BME280;32370;41.864;-88.124;2023-03-01T04:23:13;98332.20;;;4.73;60.50
46642;BME280;32370;41.864;-88.124;2023-03-01T04:25:45;98320.53;;;5.07;61.07
46642;BME280;32370;41.864;-88.124;2023-03-01T04:28:14;98266.32;;;5.22;60.97
46642;BME280;32370;41.864;-88.124;2023-03-01T04:30:42;98248.05;;;4.95;62.16
46642;BME280;32370;41.864;-88.124;2023-03-01T04:33:11;98240.67;;;4.70;62.96
46642;BME280;32370;41.864;-88.124;2023-03-01T04:35:39;98247.43;;;4.61;62.65
46642;BME280;32370;41.864;-88.124;2023-03-01T04:38:07;98223.51;;;4.89;63.13
46642;BME280;32370;41.864;-88.124;2023-03-01T04:40:36;98204.51;;;4.59;63.67
46642;BME280;32370;41.864;-88.124;2023-03-01T04:43:04;98189.98;;;4.53;64.45
46642;BME280;32370;41.864;-88.124;2023-03-01T04:45:33;98181.45;;;4.69;63.37
46642;BME280;32370;41.864;-88.124;2023-03-01T04:48:02;98191.26;;;4.27;65.49
46642;BME280;32370;41.864;-88.124;2023-03-01T04:50:30;98196.94;;;3.66;67.72
46642;BME280;32370;41.864;-88.124;2023-03-01T04:52:58;98190.18;;;4.05;65.95
46642;BME280;32370;41.864;-88.124;2023-03-01T04:55:26;98188.35;;;4.18;66.40
46642;BME280;32370;41.864;-88.124;2023-03-01T04:57:55;98184.61;;;4.41;66.40
46642;BME280;32370;41.864;-88.124;2023-03-01T05:00:24;98174.82;;;4.54;66.30
46642;BME280;32370;41.864;-88.124;2023-03-01T05:02:54;98152.26;;;3.65;69.17
46642;BME280;32370;41.864;-88.124;2023-03-01T05:05:24;98135.23;;;3.97;69.96
46642;BME280;32370;41.864;-88.124;2023-03-01T05:07:54;98140.68;;;3.94;69.08
46642;BME280;32370;41.864;-88.124;2023-03-01T05:10:23;98142.86;;;4.15;69.51
46642;BME280;32370;41.864;-88.124;2023-03-01T05:12:51;98129.37;;;4.81;69.11
46642;BME280;32370;41.864;-88.124;2023-03-01T05:15:20;98130.27;;;4.23;72.15
46642;BME280;32370;41.864;-88.124;2023-03-01T05:17:48;98145.89;;;4.15;71.70
46642;BME280;32370;41.864;-88.124;2023-03-01T05:20:16;98142.00;;;4.85;71.54
46642;BME280;32370;41.864;-88.124;2023-03-01T05:22:45;98142.92;;;4.41;72.33
46642;BME280;32370;41.864;-88.124;2023-03-01T05:25:13;98153.15;;;4.31;72.35
46642;BME280;32370;41.864;-88.124;2023-03-01T05:27:41;98148.33;;;3.92;72.89
46642;BME280;32370;41.864;-88.124;2023-03-01T05:30:10;98148.41;;;4.52;72.18
46642;BME280;32370;41.864;-88.124;2023-03-01T05:32:37;98156.61;;;4.40;73.12
46642;BME280;32370;41.864;-88.124;2023-03-01T05:35:07;98177.99;;;3.97;75.11
46642;BME280;32370;41.864;-88.124;2023-03-01T05:37:35;98190.80;;;3.71;77.32
46642;BME280;32370;41.864;-88.124;2023-03-01T05:40:03;98197.55;;;3.82;78.54
46642;BME280;32370;41.864;-88.124;2023-03-01T05:42:31;98199.32;;;3.76;77.91
46642;BME280;32370;41.864;-88.124;2023-03-01T05:44:59;98188.84;;;4.26;78.36
46642;BME280;32370;41.864;-88.124;2023-03-01T05:47:27;98173.32;;;4.58;78.77
46642;BME280;32370;41.864;-88.124;2023-03-01T05:49:59;98181.66;;;4.25;81.37
46642;BME280;32370;41.864;-88.124;2023-03-01T05:52:28;98168.45;;;4.53;83.43
46642;BME280;32370;41.864;-88.124;2023-03-01T05:56:58;98156.31;;;5.04;87.58
46642;BME280;32370;41.864;-88.124;2023-03-01T06:02:49;98183.35;;;5.01;91.65
46642;BME280;32370;41.864;-88.124;2023-03-01T06:05:17;98175.95;;;3.71;94.66
46642;BME280;32370;41.864;-88.124;2023-03-01T06:07:45;98196.74;;;3.44;97.23
46642;BME280;32370;41.864;-88.124;2023-03-01T06:10:15;98184.55;;;3.76;96.20
46642;BME280;32370;41.864;-88.124;2023-03-01T06:12:43;98198.03;;;3.22;99.00
46642;BME280;32370;41.864;-88.124;2023-03-01T06:15:15;98210.02;;;3.39;99.54
46642;BME280;32370;41.864;-88.124;2023-03-01T06:17:45;98212.87;;;2.82;100.00
46642;BME280;32370;41.864;-88.124;2023-03-01T06:20:15;98194.52;;;3.27;100.00
46642;BME280;32370;41.864;-88.124;2023-03-01T06:22:45;98188.28;;;3.31;100.00
46642;BME280;32370;41.864;-88.124;2023-03-01T06:25:15;98190.57;;;3.22;100.00
46642;BME280;32370;41.864;-88.124;2023-03-01T06:27:43;98184.25;;;3.11;100.00
46642;BME280;32370;41.864;-88.124;2023-03-01T06:30:13;98177.51;;;2.52;100.00
46642;BME280;32370;41.864;-88.124;2023-03-01T06:32:42;98142.48;;;3.27;100.00
46642;BME280;32370;41.864;-88.124;2023-03-01T06:35:14;98106.21;;;2.86;100.00
46642;BME280;32370;41.864;-88.124;2023-03-01T06:37:42;98081.05;;;2.84;100.00
46642;BME280;32370;41.864;-88.124;2023-03-01T06:40:11;98083.22;;;3.14;100.00
46642;BME280;32370;41.864;-88.124;2023-03-01T06:42:42;98086.68;;;3.12;100.00
46642;BME280;32370;41.864;-88.124;2023-03-01T06:45:10;98086.95;;;3.12;100.00
46642;BME280;32370;41.864;-88.124;2023-03-01T06:47:49;98102.06;;;3.24;100.00
46642;BME280;32370;41.864;-88.124;2023-03-01T06:50:17;98116.73;;;3.13;100.00
46642;BME280;32370;41.864;-88.124;2023-03-01T06:52:46;98126.57;;;3.28;100.00
46642;BME280;32370;41.864;-88.124;2023-03-01T06:55:14;98127.28;;;3.33;100.00
46642;BME280;32370;41.864;-88.124;2023-03-01T06:57:41;98108.82;;;2.84;100.00
46642;BME280;32370;41.864;-88.124;2023-03-01T07:00:11;98085.68;;;3.04;100.00
46642;BME280;32370;41.864;-88.124;2023-03-01T07:02:39;98085.76;;;3.07;100.00
46642;BME280;32370;41.864;-88.124;2023-03-01T07:05:07;98098.62;;;2.95;100.00
46642;BME280;32370;41.864;-88.124;2023-03-01T07:07:35;98092.05;;;3.39;100.00
46642;BME280;32370;41.864;-88.124;2023-03-01T07:10:04;98074.71;;;2.94;100.00
46642;BME280;32370;41.864;-88.124;2023-03-01T07:12:32;98061.42;;;2.96;100.00
46642;BME280;32370;41.864;-88.124;2023-03-01T07:14:59;98053.29;;;2.65;100.00
46642;BME280;32370;41.864;-88.124;2023-03-01T07:17:28;98050.94;;;2.75;100.00
46642;BME280;32370;41.864;-88.124;2023-03-01T07:19:56;98062.83;;;3.14;100.00
46642;BME280;32370;41.864;-88.124;2023-03-01T07:22:23;98074.86;;;3.13;100.00
46642;BME280;32370;41.864;-88.124;2023-03-01T07:24:52;98087.04;;;3.08;100.00
46642;BME280;32370;41.864;-88.124;2023-03-01T07:27:19;98079.18;;;3.18;100.00
46642;BME280;32370;41.864;-88.124;2023-03-01T07:29:47;98068.50;;;3.35;100.00
46642;BME280;32370;41.864;-88.124;2023-03-01T07:32:15;98059.23;;;3.06;100.00
46642;BME280;32370;41.864;-88.124;2023-03-01T07:34:44;98063.14;;;3.53;100.00
46642;BME280;32370;41.864;-88.124;2023-03-01T07:37:12;98066.14;;;3.45;100.00
46642;BME280;32370;41.864;-88.124;2023-03-01T07:39:41;98066.41;;;2.90;100.00
46642;BME280;32370;41.864;-88.124;2023-03-01T07:42:09;98061.53;;;3.58;100.00
46642;BME280;32370;41.864;-88.124;2023-03-01T07:44:37;98052.09;;;3.25;100.00
46642;BME280;32370;41.864;-88.124;2023-03-01T07:47:05;98055.45;;;3.01;100.00
46642;BME280;32370;41.864;-88.124;2023-03-01T07:49:33;98057.76;;;2.92;100.00
46642;BME280;32370;41.864;-88.124;2023-03-01T07:52:01;98057.74;;;3.04;100.00
46642;BME280;32370;41.864;-88.124;2023-03-01T07:54:29;98052.40;;;3.58;100.00
46642;BME280;32370;41.864;-88.124;2023-03-01T07:56:57;98048.86;;;2.91;100.00
46642;BME280;32370;41.864;-88.124;2023-03-01T07:59:25;98046.68;;;3.21;100.00
46642;BME280;32370;41.864;-88.124;2023-03-01T08:01:53;98043.69;;;3.01;100.00
46642;BME280;32370;41.864;-88.124;2023-03-01T08:04:21;98038.91;;;3.58;100.00
46642;BME280;32370;41.864;-88.124;2023-03-01T08:06:48;98030.38;;;3.16;100.00
46642;BME280;32370;41.864;-88.124;2023-03-01T08:09:16;98024.56;;;2.78;100.00
46642;BME280;32370;41.864;-88.124;2023-03-01T08:11:44;98022.04;;;3.30;100.00
46642;BME280;32370;41.864;-88.124;2023-03-01T08:14:12;98022.97;;;2.96;100.00
46642;BME280;32370;41.864;-88.124;2023-03-01T08:16:40;98022.76;;;3.52;100.00
46642;BME280;32370;41.864;-88.124;2023-03-01T08:19:11;98023.28;;;3.54;100.00
46642;BME280;32370;41.864;-88.124;2023-03-01T08:21:39;98020.15;;;3.70;100.00
46642;BME280;32370;41.864;-88.124;2023-03-01T08:24:08;98020.95;;;3.61;100.00
46642;BME280;32370;41.864;-88.124;2023-03-01T08:26:37;98022.90;;;3.19;100.00
46642;BME280;32370;41.864;-88.124;2023-03-01T08:29:04;98017.92;;;3.62;100.00
46642;BME280;32370;41.864;-88.124;2023-03-01T08:31:35;98015.39;;;3.35;100.00
46642;BME280;32370;41.864;-88.124;2023-03-01T08:34:09;98012.57;;;3.53;100.00
46642;BME280;32370;41.864;-88.124;2023-03-01T08:36:39;98012.87;;;3.50;100.00
46642;BME280;32370;41.864;-88.124;2023-03-01T08:39:10;98007.88;;;3.08;100.00
46642;BME280;32370;41.864;-88.124;2023-03-01T08:41:39;98008.04;;;3.26;100.00
46642;BME280;32370;41.864;-88.124;2023-03-01T08:44:07;97999.01;;;2.80;100.00
46642;BME280;32370;41.864;-88.124;2023-03-01T08:46:37;97992.76;;;3.38;100.00
46642;BME280;32370;41.864;-88.124;2023-03-01T08:49:08;97994.50;;;3.18;100.00
46642;BME280;32370;41.864;-88.124;2023-03-01T08:51:38;97998.00;;;3.53;100.00
46642;BME280;32370;41.864;-88.124;2023-03-01T08:54:09;97992.86;;;3.44;100.00
46642;BME280;32370;41.864;-88.124;2023-03-01T08:56:38;97988.18;;;2.90;100.00
46642;BME280;32370;41.864;-88.124;2023-03-01T08:59:06;97986.31;;;3.21;100.00
46642;BME280;32370;41.864;-88.124;2023-03-01T09:01:40;97989.61;;;3.09;100.00
46642;BME280;32370;41.864;-88.124;2023-03-01T09:04:08;97990.07;;;3.25;100.00
46642;BME280;32370;41.864;-88.124;2023-03-01T09:06:36;97987.69;;;3.72;100.00
46642;BME280;32370;41.864;-88.124;2023-03-01T09:09:05;97989.20;;;2.79;100.00
46642;BME280;32370;41.864;-88.124;2023-03-01T09:11:34;97989.19;;;2.85;100.00
46642;BME280;32370;41.864;-88.124;2023-03-01T09:14:05;97997.50;;;3.15;100.00
46642;BME280;32370;41.864;-88.124;2023-03-01T09:16:34;97998.14;;;3.35;100.00
46642;BME280;32370;41.864;-88.124;2023-03-01T09:19:03;97995.24;;;3.07;100.00
46642;BME280;32370;41.864;-88.124;2023-03-01T09:21:32;97990.17;;;3.04;100.00
46642;BME280;32370;41.864;-88.124;2023-03-01T09:23:59;97997.57;;;3.45;100.00
46642;BME280;32370;41.864;-88.124;2023-03-01T09:26:27;98000.68;;;3.39;100.00
46642;BME280;32370;41.864;-88.124;2023-03-01T09:28:56;97994.69;;;3.56;100.00
46642;BME280;32370;41.864;-88.124;2023-03-01T09:31:25;97989.70;;;2.61;100.00
46642;BME280;32370;41.864;-88.124;2023-03-01T09:33:54;97986.34;;;3.18;100.00
46642;BME280;32370;41.864;-88.124;2023-03-01T09:36:24;97987.65;;;3.20;100.00
46642;BME280;32370;41.864;-88.124;2023-03-01T09:38:51;97980.37;;;3.61;100.00
46642;BME280;32370;41.864;-88.124;2023-03-01T09:41:35;97977.91;;;3.29;100.00
46642;BME280;32370;41.864;-88.124;2023-03-01T09:44:13;97975.94;;;3.03;100.00
46642;BME280;32370;41.864;-88.124;2023-03-01T09:46:44;97974.58;;;2.99;100.00
46642;BME280;32370;41.864;-88.124;2023-03-01T09:49:15;97978.78;;;2.95;100.00
46642;BME280;32370;41.864;-88.124;2023-03-01T09:51:54;97976.81;;;3.02;100.00
46642;BME280;32370;41.864;-88.124;2023-03-01T09:54:23;97981.91;;;2.81;100.00
46642;BME280;32370;41.864;-88.124;2023-03-01T09:57:01;97982.58;;;2.63;100.00
46642;BME280;32370;41.864;-88.124;2023-03-01T09:59:43;97976.47;;;2.81;100.00
46642;BME280;32370;41.864;-88.124;2023-03-01T10:02:24;97971.44;;;3.07;100.00
46642;BME280;32370;41.864;-88.124;2023-03-01T10:04:56;97967.64;;;3.09;100.00
46642;BME280;32370;41.864;-88.124;2023-03-01T10:07:38;97960.29;;;3.42;100.00
46642;BME280;32370;41.864;-88.124;2023-03-01T10:10:21;97954.90;;;2.79;100.00
46642;BME280;32370;41.864;-88.124;2023-03-01T10:12:52;97951.99;;;3.01;100.00
46642;BME280;32370;41.864;-88.124;2023-03-01T10:15:30;97949.50;;;3.02;100.00
46642;BME280;32370;41.864;-88.124;2023-03-01T10:18:06;97942.39;;;2.90;100.00
46642;BME280;32370;41.864;-88.124;2023-03-01T10:20:45;97937.24;;;2.87;100.00
46642;BME280;32370;41.864;-88.124;2023-03-01T10:23:14;97939.85;;;2.54;100.00
46642;BME280;32370;41.864;-88.124;2023-03-01T10:25:52;97948.21;;;2.70;100.00
46642;BME280;32370;41.864;-88.124;2023-03-01T10:28:28;97947.44;;;2.39;100.00
46642;BME280;32370;41.864;-88.124;2023-03-01T10:30:59;97945.70;;;2.67;100.00
46642;BME280;32370;41.864;-88.124;2023-03-01T10:33:30;97947.75;;;2.50;100.00
46642;BME280;32370;41.864;-88.124;2023-03-01T10:35:59;97956.23;;;2.23;100.00
46642;BME280;32370;41.864;-88.124;2023-03-01T10:38:31;97958.49;;;2.49;100.00
46642;BME280;32370;41.864;-88.124;2023-03-01T10:41:05;97963.09;;;2.30;100.00
46642;BME280;32370;41.864;-88.124;2023-03-01T10:43:55;97958.46;;;1.86;100.00
46642;BME280;32370;41.864;-88.124;2023-03-01T10:46:26;97968.15;;;2.27;100.00
46642;BME280;32370;41.864;-88.124;2023-03-01T10:49:27;97961.76;;;2.90;100.00
46642;BME280;32370;41.864;-88.124;2023-03-01T10:51:55;97956.03;;;2.47;100.00
46642;BME280;32370;41.864;-88.124;2023-03-01T10:54:26;97950.97;;;2.19;100.00
46642;BME280;32370;41.864;-88.124;2023-03-01T10:56:56;97948.72;;;2.72;100.00
46642;BME280;32370;41.864;-88.124;2023-03-01T10:59:28;97953.29;;;2.09;100.00
46642;BME280;32370;41.864;-88.124;2023-03-01T11:02:15;97962.17;;;2.16;100.00
46642;BME280;32370;41.864;-88.124;2023-03-01T11:04:58;97971.41;;;2.62;100.00
46642;BME280;32370;41.864;-88.124;2023-03-01T11:07:26;97971.88;;;2.68;100.00
46642;BME280;32370;41.864;-88.124;2023-03-01T11:09:54;97977.42;;;2.77;100.00
46642;BME280;32370;41.864;-88.124;2023-03-01T11:12:22;97984.51;;;2.53;100.00
46642;BME280;32370;41.864;-88.124;2023-03-01T11:14:54;97989.68;;;2.69;100.00
46642;BME280;32370;41.864;-88.124;2023-03-01T11:17:27;98003.29;;;2.58;100.00
46642;BME280;32370;41.864;-88.124;2023-03-01T11:20:10;98007.50;;;2.08;100.00
46642;BME280;32370;41.864;-88.124;2023-03-01T11:22:47;97997.52;;;2.03;100.00
46642;BME280;32370;41.864;-88.124;2023-03-01T11:25:15;97986.86;;;2.44;100.00
46642;BME280;32370;41.864;-88.124;2023-03-01T11:27:46;97988.19;;;1.97;100.00
46642;BME280;32370;41.864;-88.124;2023-03-01T11:30:20;98004.17;;;2.39;100.00
46642;BME280;32370;41.864;-88.124;2023-03-01T11:33:01;98017.70;;;2.02;100.00
46642;BME280;32370;41.864;-88.124;2023-03-01T11:35:32;98011.52;;;2.33;100.00
46642;BME280;32370;41.864;-88.124;2023-03-01T11:38:15;98006.24;;;2.54;100.00
46642;BME280;32370;41.864;-88.124;2023-03-01T11:40:47;98002.52;;;2.48;100.00
46642;BME280;32370;41.864;-88.124;2023-03-01T11:43:23;98002.49;;;2.24;100.00
46642;BME280;32370;41.864;-88.124;2023-03-01T11:46:20;98017.08;;;2.16;100.00
46642;BME280;32370;41.864;-88.124;2023-03-01T11:48:56;98034.31;;;2.01;100.00
46642;BME280;32370;41.864;-88.124;2023-03-01T11:51:41;98036.07;;;2.35;100.00
46642;BME280;32370;41.864;-88.124;2023-03-01T11:54:23;98036.47;;;2.40;100.00
46642;BME280;32370;41.864;-88.124;2023-03-01T11:57:00;98037.35;;;2.44;100.00
46642;BME280;32370;41.864;-88.124;2023-03-01T11:59:47;98029.87;;;1.99;100.00
46642;BME280;32370;41.864;-88.124;2023-03-01T12:02:42;98025.21;;;2.09;100.00
46642;BME280;32370;41.864;-88.124;2023-03-01T12:05:24;98015.60;;;2.27;100.00
46642;BME280;32370;41.864;-88.124;2023-03-01T12:08:00;98008.87;;;2.44;100.00
46642;BME280;32370;41.864;-88.124;2023-03-01T12:10:37;98013.92;;;2.51;100.00
46642;BME280;32370;41.864;-88.124;2023-03-01T12:13:22;98009.66;;;2.73;100.00
46642;BME280;32370;41.864;-88.124;2023-03-01T12:16:47;98013.51;;;3.21;100.00
46642;BME280;32370;41.864;-88.124;2023-03-01T12:19:39;98013.38;;;2.28;100.00
46642;BME280;32370;41.864;-88.124;2023-03-01T12:22:22;98013.50;;;2.27;100.00
46642;BME280;32370;41.864;-88.124;2023-03-01T12:25:08;98017.18;;;2.26;100.00
46642;BME280;32370;41.864;-88.124;2023-03-01T12:27:58;98025.33;;;2.13;100.00
46642;BME280;32370;41.864;-88.124;2023-03-01T12:30:39;98016.68;;;1.79;100.00
46642;BME280;32370;41.864;-88.124;2023-03-01T12:33:19;98020.28;;;2.23;100.00
46642;BME280;32370;41.864;-88.124;2023-03-01T12:36:00;98014.68;;;2.62;100.00
46642;BME280;32370;41.864;-88.124;2023-03-01T12:38:37;97999.50;;;2.79;100.00
46642;BME280;32370;41.864;-88.124;2023-03-01T12:41:46;97996.60;;;3.47;100.00
46642;BME280;32370;41.864;-88.124;2023-03-01T12:44:26;98000.38;;;2.36;100.00
46642;BME280;32370;41.864;-88.124;2023-03-01T12:47:10;97997.28;;;2.43;100.00
46642;BME280;32370;41.864;-88.124;2023-03-01T12:49:47;97989.63;;;2.37;100.00
46642;BME280;32370;41.864;-88.124;2023-03-01T12:52:21;97982.36;;;2.25;100.00
46642;BME280;32370;41.864;-88.124;2023-03-01T12:54:52;97977.22;;;2.11;100.00
46642;BME280;32370;41.864;-88.124;2023-03-01T12:57:33;97981.89;;;2.76;100.00
46642;BME280;32370;41.864;-88.124;2023-03-01T13:00:17;97985.37;;;2.47;100.00
46642;BME280;32370;41.864;-88.124;2023-03-01T13:02:53;97984.68;;;2.52;100.00
46642;BME280;32370;41.864;-88.124;2023-03-01T13:05:33;97991.73;;;1.99;100.00
46642;BME280;32370;41.864;-88.124;2023-03-01T13:08:09;98005.75;;;2.25;100.00
46642;BME280;32370;41.864;-88.124;2023-03-01T13:10:45;98010.98;;;1.93;100.00
46642;BME280;32370;41.864;-88.124;2023-03-01T13:13:20;98009.41;;;2.27;100.00